LIBF/FOG METAR and TAF weather

Enter ICAO airport designator
Station Type Date Time Source
LIBF METAR 2019/02/20 14:50 UTC NOAA

LIBF 201450Z 31008KT 9000 FEW025 14/07 Q1023


Station Type Date Time Source
LIBF Decoded METAR 2019/02/20 14:50 UTC NOAA

Station name not available
Feb 20, 2019 - 09:50 AM EST / 2019.02.20 1450 UTC
Wind: from the NW (310 degrees) at 9 MPH (8 KT):0
Visibility: 5 mile(s):0
Sky conditions: mostly clear
Temperature: 57 F (14 C)
Dew Point: 44 F (7 C)
Relative Humidity: 62%
Pressure (altimeter): 30.21 in. Hg (1023 hPa)
ob: LIBF 201450Z 31008KT 9000 FEW025 14/07 Q1023
cycle: 15

Station Type Date Time Source
LIBF TAF 2015/04/03 06:00 UTC NOAA

TAF LIBF 030500Z 0306/0406 35014KT 9999 FEW030


Example: see airport list